createdAt,value
2019-05-25T01:20:52.410Z,87.77
2019-05-25T01:55:39.748Z,87.81
2019-05-25T02:25:19.115Z,88.57
2019-05-25T02:44:29.886Z,87.99
2019-05-25T02:45:28.935Z,87.69
2019-05-25T02:46:29.745Z,87.99
2019-05-25T02:47:28.928Z,88.10
2019-05-25T02:48:28.732Z,88.31
2019-05-25T02:52:01.084Z,88.62
2019-05-25T02:52:59.097Z,88.62
2019-05-25T02:54:00.062Z,87.99
2019-05-25T02:54:59.018Z,88.35
2019-05-25T02:56:00.989Z,88.10
2019-05-25T03:46:55.544Z,90.00
2019-05-25T03:49:50.397Z,89.89
2019-05-25T03:50:50.121Z,89.79
2019-05-25T03:51:49.810Z,89.65
2019-05-25T03:52:50.365Z,89.58
2019-05-25T03:53:49.041Z,89.48
2019-05-25T03:56:42.215Z,90.06
2019-05-25T03:57:56.870Z,89.75
2019-05-25T04:00:31.348Z,89.44
2019-05-25T04:01:31.367Z,90.06
2019-05-25T04:02:57.509Z,89.91
2019-05-25T04:05:11.772Z,90.43
2019-05-25T04:06:09.765Z,90.16
2019-05-25T04:07:22.060Z,89.91
2019-05-25T04:08:08.838Z,90.01
2019-05-25T04:09:08.919Z,90.53
2019-05-25T04:10:08.782Z,90.59
2019-05-25T04:11:59.891Z,90.84
2019-05-25T04:17:58.926Z,90.55
2019-05-25T04:23:53.961Z,89.42
2019-05-25T04:40:22.967Z,90.36
2019-05-25T04:47:39.773Z,89.66
2019-05-25T04:48:24.869Z,89.46
2019-05-25T05:01:06.103Z,89.54
2019-05-25T05:01:59.759Z,88.92
2019-05-25T05:02:59.190Z,88.82
2019-05-25T05:03:59.114Z,89.13
2019-05-25T05:04:59.047Z,88.88
2019-05-25T05:05:59.705Z,89.39
2019-05-25T05:06:59.065Z,89.29
2019-05-25T05:07:58.983Z,88.94
2019-05-25T05:09:01.552Z,89.36
2019-05-25T05:10:03.057Z,92.02
2019-05-25T05:10:58.823Z,93.30
2019-05-25T05:11:58.854Z,93.20
2019-05-25T05:12:59.087Z,92.49
2019-05-25T05:13:58.795Z,90.95
2019-05-25T05:14:58.753Z,89.89
2019-05-25T05:15:58.760Z,90.19
2019-05-25T05:16:58.963Z,89.37
2019-05-25T05:17:58.789Z,89.03
2019-05-25T05:18:58.773Z,88.20
2019-05-25T05:19:59.443Z,87.49
2019-05-25T05:20:59.738Z,87.08
2019-05-25T05:21:58.811Z,87.18
2019-05-25T05:22:58.673Z,86.12
2019-05-25T05:23:58.720Z,86.43
2019-05-25T05:24:58.700Z,86.43
2019-05-25T05:25:58.642Z,86.18
2019-05-25T05:26:58.754Z,86.29
2019-05-25T05:27:58.686Z,86.29
2019-05-25T05:28:58.611Z,85.88
2019-05-25T05:29:58.625Z,85.73
2019-05-25T05:30:58.795Z,86.24
2019-05-25T05:31:59.353Z,85.83
2019-05-25T05:32:58.668Z,85.59
2019-05-25T05:33:58.615Z,84.94
2019-05-25T05:34:58.523Z,84.06
2019-05-25T05:35:58.584Z,84.77
2019-05-25T05:36:58.905Z,84.22
2019-05-25T05:37:58.566Z,84.63
2019-05-25T05:38:58.571Z,84.33
2019-05-25T05:39:58.421Z,81.16
2019-05-25T05:40:58.454Z,80.10
2019-05-25T05:41:58.501Z,80.71
2019-05-25T05:42:58.480Z,80.20
2019-05-25T05:43:58.431Z,79.45
2019-05-25T05:44:59.472Z,79.25
2019-05-25T05:45:58.377Z,80.02
2019-05-25T05:46:59.506Z,77.27
2019-05-25T05:47:58.553Z,78.91
2019-05-25T05:48:58.371Z,77.68
2019-05-25T05:49:59.462Z,77.34
2019-05-25T05:50:58.357Z,77.95
2019-05-25T05:51:58.451Z,78.05
2019-05-25T05:52:58.891Z,79.68
2019-05-25T05:53:59.948Z,79.79
2019-05-25T05:54:58.363Z,78.63
2019-05-25T05:55:58.390Z,77.51
2019-05-25T05:57:11.584Z,77.10
2019-05-25T05:57:59.460Z,77.00
2019-05-25T05:58:58.361Z,77.06
2019-05-25T05:59:58.748Z,77.17
2019-05-25T06:00:58.402Z,76.96
2019-05-25T06:01:59.301Z,76.35
2019-05-25T06:02:59.363Z,75.74
2019-05-25T06:03:58.945Z,75.54
2019-05-25T06:04:59.219Z,73.67
2019-05-25T06:05:59.210Z,75.60
2019-05-25T06:06:58.137Z,75.70
2019-05-25T06:07:58.183Z,75.50
2019-05-25T06:08:59.810Z,75.40
2019-05-25T06:09:58.973Z,75.50
2019-05-25T06:10:58.066Z,74.58
2019-05-25T06:11:59.068Z,74.48
2019-05-25T06:12:58.045Z,75.30
2019-05-25T06:13:59.258Z,74.18
2019-05-25T06:14:58.023Z,74.24
2019-05-25T06:15:58.018Z,73.94
2019-05-25T06:16:58.074Z,74.04
2019-05-25T06:17:59.039Z,73.94
2019-05-25T06:18:59.072Z,75.37
2019-05-25T06:19:58.856Z,77.16
2019-05-25T06:20:59.021Z,75.12
2019-05-25T06:21:58.934Z,74.92
2019-05-25T06:22:57.933Z,74.62
2019-05-25T06:23:57.920Z,74.01
2019-05-25T06:24:58.336Z,74.62
2019-05-25T06:25:58.463Z,75.12
2019-05-25T06:26:57.897Z,75.33
2019-05-25T06:27:57.871Z,76.21
2019-05-25T06:28:57.859Z,75.90
2019-05-25T06:29:58.001Z,76.61
2019-05-25T06:30:57.868Z,77.22
2019-05-25T06:31:57.949Z,76.31
2019-05-25T06:32:59.040Z,76.31
2019-05-25T06:33:57.877Z,75.29
2019-05-25T06:34:57.968Z,74.24
2019-05-25T06:35:57.782Z,74.65
2019-05-25T06:36:57.772Z,75.36
2019-05-25T06:37:57.749Z,74.24
2019-05-25T06:38:57.751Z,73.09
2019-05-25T06:39:58.029Z,73.09
2019-05-25T06:40:57.771Z,73.80
2019-05-25T06:41:57.844Z,73.12
2019-05-25T06:42:58.765Z,71.88
2019-05-25T06:43:58.808Z,70.21
2019-05-25T06:44:59.358Z,71.50
2019-05-25T06:45:57.694Z,72.95
2019-05-25T06:46:58.864Z,71.70
2019-05-25T06:47:57.749Z,72.78
2019-05-25T06:48:57.649Z,70.73
2019-05-25T06:49:58.327Z,69.65
2019-05-25T06:50:58.619Z,73.18
2019-05-25T06:51:57.929Z,71.44
2019-05-25T06:52:58.173Z,66.96
2019-05-25T06:53:57.678Z,65.72
2019-05-25T06:54:58.289Z,65.92
2019-05-25T06:55:57.625Z,67.03
2019-05-25T06:56:57.676Z,66.90
2019-05-25T06:57:57.573Z,67.47
2019-05-25T06:58:57.538Z,65.42
2019-05-25T06:59:57.597Z,64.59
2019-05-25T07:00:57.588Z,65.09
2019-05-25T07:01:58.534Z,60.64
2019-05-25T07:02:57.654Z,61.94
2019-05-25T07:03:57.564Z,62.05
2019-05-25T07:04:57.742Z,63.25
2019-05-25T07:05:57.508Z,61.41
2019-05-25T07:06:57.454Z,62.45
2019-05-25T07:07:58.430Z,61.54
2019-05-25T07:08:57.869Z,62.42
2019-05-25T07:12:22.074Z,62.52
2019-05-25T07:13:15.981Z,63.12
2019-05-25T07:14:14.865Z,64.73
2019-05-25T07:15:14.786Z,62.12
2019-05-25T07:16:15.782Z,62.89
2019-05-25T07:17:14.762Z,63.59
2019-05-25T07:18:14.799Z,58.47
2019-05-25T07:19:14.763Z,59.50
2019-05-25T07:20:15.001Z,59.00
2019-05-25T07:21:14.720Z,60.24
2019-05-25T07:22:14.811Z,62.55
2019-05-25T07:23:14.723Z,62.35
2019-05-25T07:24:14.704Z,59.03
2019-05-25T07:25:14.973Z,62.15
2019-05-25T07:26:14.749Z,63.56
2019-05-25T07:27:14.794Z,59.91
2019-05-25T07:28:14.638Z,60.44
2019-05-25T07:29:14.698Z,61.24
2019-05-25T07:30:15.688Z,63.42
2019-05-25T07:31:14.675Z,63.12
2019-05-25T07:32:14.660Z,58.80
2019-05-25T07:33:14.571Z,62.62
2019-05-25T07:34:14.580Z,64.30
2019-05-25T07:35:14.647Z,61.08
2019-05-25T07:36:14.613Z,59.47
2019-05-25T07:37:14.593Z,59.98
2019-05-25T07:38:14.528Z,58.27
2019-05-25T07:39:14.528Z,58.77
2019-05-25T07:40:14.584Z,61.82
2019-05-25T07:41:15.507Z,62.62
2019-05-25T07:42:14.640Z,63.09
2019-05-25T07:43:14.540Z,63.29
2019-05-25T07:44:14.479Z,62.66
2019-05-25T07:45:14.511Z,59.25
2019-05-25T07:46:17.074Z,61.66
2019-05-25T07:47:14.419Z,59.85
2019-05-25T07:48:14.469Z,59.25
2019-05-25T07:49:14.379Z,58.67
2019-05-25T07:50:14.407Z,60.38
2019-05-25T07:51:14.552Z,61.79
2019-05-25T07:52:15.476Z,60.68
2019-05-25T07:53:14.375Z,61.58
2019-05-25T07:54:14.452Z,61.99
2019-05-25T07:55:14.361Z,60.18
2019-05-25T07:56:14.353Z,62.42
2019-05-25T07:57:15.343Z,62.72
2019-05-25T07:58:18.007Z,62.49
2019-05-25T07:59:14.314Z,64.80
2019-05-25T08:00:14.266Z,63.59
2019-05-25T08:01:14.279Z,61.76
2019-05-25T08:02:15.332Z,61.55
2019-05-25T08:03:14.282Z,60.25
2019-05-25T08:04:14.250Z,59.62
2019-05-25T08:05:14.263Z,61.02
2019-05-25T08:06:14.270Z,61.83
2019-05-25T08:07:14.219Z,61.50
2019-05-25T08:08:14.164Z,62.20
2019-05-25T08:09:15.042Z,59.09
2019-05-25T08:10:14.203Z,57.51
2019-05-25T08:11:14.226Z,59.95
2019-05-25T08:12:14.152Z,60.96
2019-05-25T08:13:14.228Z,60.75
2019-05-25T08:14:14.109Z,63.17
2019-05-25T08:15:14.149Z,59.72
2019-05-25T08:16:14.102Z,61.02
2019-05-25T08:17:14.090Z,62.10
2019-05-25T08:18:14.101Z,58.51
2019-05-25T08:19:14.094Z,59.22
2019-05-25T08:20:14.102Z,62.30
2019-05-25T08:21:14.137Z,63.40
2019-05-25T08:22:14.083Z,61.50
2019-05-25T08:23:14.038Z,58.96
2019-05-25T08:24:14.012Z,59.66
2019-05-25T08:25:14.007Z,58.73
2019-05-25T08:26:13.997Z,60.84
2019-05-25T08:27:14.017Z,59.44
2019-05-25T08:28:13.975Z,59.91
2019-05-25T08:29:14.030Z,60.91
2019-05-25T08:30:13.952Z,58.53
2019-05-25T08:31:13.967Z,58.26
2019-05-25T08:32:13.956Z,60.80
2019-05-25T08:33:14.923Z,61.36
2019-05-25T08:34:13.947Z,62.30
2019-05-25T08:35:13.878Z,61.30
2019-05-25T08:36:13.922Z,60.06
2019-05-25T08:37:13.909Z,61.90
2019-05-25T08:38:13.847Z,62.10
2019-05-25T08:39:13.905Z,61.00
2019-05-25T08:40:14.840Z,60.52
2019-05-25T08:41:13.971Z,60.93
2019-05-25T08:42:13.838Z,59.95
2019-05-25T08:43:13.801Z,60.85
2019-05-25T08:44:13.847Z,62.26
2019-05-25T08:45:13.769Z,63.64
2019-05-25T08:46:13.738Z,61.70
2019-05-25T08:47:13.775Z,60.86
2019-05-25T08:48:13.953Z,61.00
2019-05-25T08:49:13.741Z,61.80
2019-05-25T08:50:13.732Z,61.27
2019-05-25T08:51:14.730Z,60.49
2019-05-25T08:52:13.727Z,61.60
2019-05-25T08:53:13.676Z,60.60
2019-05-25T08:54:13.670Z,61.96
2019-05-25T08:55:13.652Z,62.26
2019-05-25T08:56:13.661Z,62.19
2019-05-25T08:57:34.773Z,62.39
2019-05-25T08:58:13.704Z,62.06
2019-05-25T08:59:13.630Z,63.36
2019-05-25T09:00:13.616Z,63.17
2019-05-25T09:01:13.715Z,61.33
2019-05-25T09:02:13.641Z,62.26
2019-05-25T09:03:13.622Z,62.69
2019-05-25T09:04:13.575Z,62.02
2019-05-25T09:05:13.548Z,63.22
2019-05-25T09:06:13.602Z,64.13
2019-05-25T09:07:13.558Z,62.62
2019-05-25T09:08:13.557Z,63.12
2019-05-25T09:09:13.519Z,64.13
2019-05-25T09:10:13.507Z,62.12
2019-05-25T09:11:13.509Z,64.70
2019-05-25T09:12:13.443Z,63.19
2019-05-25T09:13:13.538Z,66.47
2019-05-25T09:14:13.470Z,64.07
2019-05-25T09:15:13.481Z,62.36
2019-05-25T09:16:13.517Z,62.26
2019-05-25T09:17:13.436Z,61.76
2019-05-25T09:18:13.405Z,61.05
2019-05-25T09:19:13.406Z,61.69
2019-05-25T09:20:13.458Z,61.58
2019-05-25T09:21:13.494Z,61.69
2019-05-25T09:22:13.393Z,63.29
2019-05-25T09:23:13.347Z,63.96
2019-05-25T09:24:13.347Z,61.29
2019-05-25T09:25:13.325Z,62.08
2019-05-25T09:26:13.647Z,63.26
2019-05-25T09:27:13.500Z,62.26
2019-05-25T09:28:13.352Z,63.67
2019-05-25T09:29:13.357Z,61.76
2019-05-25T09:30:13.265Z,61.93
2019-05-25T09:31:13.353Z,62.23
2019-05-25T09:32:13.246Z,62.00
2019-05-25T09:33:13.344Z,61.83
2019-05-25T09:34:13.243Z,63.20
2019-05-25T09:35:13.217Z,61.00
2019-05-25T09:36:13.195Z,59.99
2019-05-25T09:37:13.300Z,60.10
2019-05-25T09:38:13.177Z,62.60
2019-05-25T09:39:13.141Z,60.49
2019-05-25T09:40:13.143Z,59.89
2019-05-25T09:41:13.143Z,59.89
2019-05-25T09:42:13.165Z,59.01
2019-05-25T09:43:13.129Z,60.19
2019-05-25T09:44:13.113Z,61.40
2019-05-25T09:45:14.195Z,61.00
2019-05-25T09:46:13.147Z,61.90
2019-05-25T09:47:13.090Z,61.87
2019-05-25T09:48:13.057Z,60.97
2019-05-25T09:49:13.971Z,59.77
2019-05-25T09:50:13.130Z,58.26
2019-05-25T09:51:16.129Z,58.49
2019-05-25T09:52:13.071Z,58.59
2019-05-25T09:53:13.001Z,58.18
2019-05-25T09:54:13.006Z,59.62
2019-05-25T09:55:13.022Z,59.01
2019-05-25T09:56:12.999Z,60.35
2019-05-25T09:57:12.981Z,60.55
2019-05-25T09:58:12.951Z,62.49
2019-05-25T09:59:20.120Z,59.88
2019-05-25T10:00:12.937Z,61.49
2019-05-25T10:01:13.037Z,61.69
2019-05-25T10:02:12.916Z,61.15
2019-05-25T10:03:12.948Z,61.05
2019-05-25T10:04:12.874Z,62.46
2019-05-25T10:05:12.857Z,62.26
2019-05-25T10:06:13.485Z,62.83
2019-05-25T10:07:12.834Z,62.93
2019-05-25T10:08:12.823Z,61.15
2019-05-25T10:09:12.975Z,61.76
2019-05-25T10:10:12.801Z,62.49
2019-05-25T10:11:12.810Z,63.09
2019-05-25T10:12:16.105Z,64.80
2019-05-25T10:13:12.754Z,63.70
2019-05-25T10:14:12.817Z,65.41
2019-05-25T10:15:12.740Z,64.47
2019-05-25T10:16:12.711Z,64.27
2019-05-25T10:17:12.755Z,64.87
2019-05-25T10:18:12.778Z,64.17
2019-05-25T10:19:12.694Z,62.36
2019-05-25T10:20:12.721Z,64.07
2019-05-25T10:21:14.993Z,62.46
2019-05-25T10:22:12.649Z,63.53
2019-05-25T10:23:12.697Z,63.64
2019-05-25T10:24:12.665Z,61.22
2019-05-25T10:25:12.679Z,62.60
2019-05-25T10:26:12.622Z,61.00
2019-05-25T10:27:12.604Z,62.10
2019-05-25T10:28:12.636Z,59.77
2019-05-25T10:29:12.580Z,59.86
2019-05-25T10:30:12.609Z,59.96
2019-05-25T10:31:12.564Z,60.06
2019-05-25T10:32:12.579Z,59.36
2019-05-25T10:33:12.555Z,59.86
2019-05-25T10:34:12.531Z,59.46
2019-05-25T10:35:12.521Z,59.86
2019-05-25T10:36:12.551Z,60.19
2019-05-25T10:37:12.536Z,61.19
2019-05-25T10:38:12.473Z,61.60
2019-05-25T10:39:12.487Z,62.90
2019-05-25T10:40:12.461Z,61.50
2019-05-25T10:41:12.481Z,60.19
2019-05-25T10:42:12.477Z,61.63
2019-05-25T10:43:12.417Z,62.30
2019-05-25T10:44:12.408Z,61.80
2019-05-25T10:45:12.423Z,59.19
2019-05-25T10:46:12.402Z,62.60
2019-05-25T10:47:12.455Z,60.49
2019-05-25T10:48:12.356Z,60.10
2019-05-25T10:49:12.352Z,60.10
2019-05-25T10:50:12.420Z,59.72
2019-05-25T10:51:12.345Z,62.26
2019-05-25T10:52:12.329Z,63.67
2019-05-25T10:53:12.316Z,62.66
2019-05-25T10:54:12.291Z,63.46
2019-05-25T10:55:12.325Z,62.03
2019-05-25T10:56:12.281Z,61.72
2019-05-25T10:57:13.346Z,62.30
2019-05-25T10:58:12.256Z,61.63
2019-05-25T10:59:12.275Z,61.63
2019-05-25T11:00:12.258Z,64.84
2019-05-25T11:01:12.220Z,64.81
2019-05-25T11:02:12.206Z,65.15
2019-05-25T11:03:12.215Z,63.61
2019-05-25T11:04:12.220Z,60.41
2019-05-25T11:05:12.212Z,62.11
2019-05-25T11:06:12.170Z,59.74
2019-05-25T11:07:12.154Z,61.44
2019-05-25T11:08:12.167Z,62.51
2019-05-25T11:09:12.175Z,61.71
2019-05-25T11:10:12.113Z,60.41
2019-05-25T11:11:12.111Z,58.00
2019-05-25T11:13:22.696Z,60.81
2019-05-25T11:14:22.436Z,59.41
2019-05-25T11:15:22.472Z,58.11
2019-05-25T11:16:22.453Z,60.84
2019-05-25T11:17:22.504Z,58.96
2019-05-25T11:18:22.412Z,59.39
2019-05-25T11:19:24.134Z,62.63
2019-05-25T11:20:22.326Z,62.03
2019-05-25T11:21:22.263Z,60.12
2019-05-25T11:22:22.239Z,61.05
2019-05-25T11:23:22.237Z,60.85
2019-05-25T11:24:22.273Z,60.65
2019-05-25T11:25:22.213Z,62.19
2019-05-25T11:26:22.199Z,62.08
2019-05-25T11:27:22.184Z,62.39
2019-05-25T11:28:22.158Z,63.70
2019-05-25T11:29:22.266Z,64.70
2019-05-25T11:30:22.165Z,63.19
2019-05-25T11:31:22.162Z,62.76
2019-05-25T11:32:22.129Z,63.17
2019-05-25T11:33:22.137Z,62.76
2019-05-25T11:34:22.152Z,62.16
2019-05-25T11:35:22.094Z,63.67
2019-05-25T11:36:22.082Z,62.16
2019-05-25T11:37:22.082Z,62.06
2019-05-25T11:38:22.116Z,61.55
2019-05-25T11:39:22.048Z,61.99
2019-05-25T11:40:22.092Z,61.79
2019-05-25T11:41:22.057Z,62.99
2019-05-25T11:42:22.015Z,64.20
2019-05-25T11:43:22.006Z,64.20
2019-05-25T11:44:21.978Z,63.17
2019-05-25T11:45:21.994Z,63.56
2019-05-25T11:46:22.024Z,63.26
2019-05-25T11:47:21.967Z,61.72
2019-05-25T11:48:21.945Z,63.03
2019-05-25T11:49:22.814Z,63.20
2019-05-25T11:50:22.065Z,63.31
2019-05-25T11:51:22.099Z,64.07
2019-05-25T11:52:21.903Z,61.64
2019-05-25T11:53:21.892Z,64.15
2019-05-25T11:54:21.865Z,61.47
2019-05-25T11:55:21.887Z,63.07
2019-05-25T11:56:21.865Z,60.97
2019-05-25T11:57:40.189Z,62.37
2019-05-25T11:58:21.857Z,60.49
2019-05-25T11:59:21.822Z,62.20
2019-05-25T12:00:25.269Z,62.80
2019-05-25T12:01:21.872Z,61.93
2019-05-25T12:02:21.801Z,62.33
2019-05-25T12:03:21.780Z,62.96
2019-05-25T12:04:21.762Z,63.67
2019-05-25T12:05:21.745Z,63.17
2019-05-25T12:06:21.847Z,61.76
2019-05-25T12:07:21.733Z,62.08
2019-05-25T12:08:21.759Z,61.91
2019-05-25T12:09:21.715Z,63.12
2019-05-25T12:10:21.735Z,63.12
2019-05-25T12:11:21.688Z,62.92
2019-05-25T12:12:21.712Z,63.70
2019-05-25T12:13:21.719Z,62.46
2019-05-25T12:14:21.699Z,63.33
2019-05-25T12:15:21.654Z,62.60
2019-05-25T12:16:21.629Z,62.77
2019-05-25T12:17:21.626Z,63.64
2019-05-25T12:18:21.605Z,62.61
2019-05-25T12:19:21.637Z,64.39
2019-05-25T12:20:21.585Z,62.65
2019-05-25T12:21:21.567Z,63.25
2019-05-25T12:22:21.564Z,60.92
2019-05-25T12:23:21.582Z,58.99
2019-05-25T12:24:21.593Z,58.42
2019-05-25T12:25:21.535Z,58.02
2019-05-25T12:26:21.511Z,57.37
2019-05-25T12:28:33.574Z,60.71
2019-05-25T12:29:33.516Z,59.53
2019-05-25T12:30:40.977Z,59.74
2019-05-25T12:31:34.432Z,60.06
2019-05-25T12:32:33.419Z,59.66
2019-05-25T12:33:33.418Z,60.77
2019-05-25T12:34:33.411Z,61.60
2019-05-25T12:35:33.371Z,61.40
2019-05-25T12:36:33.356Z,61.93
2019-05-25T12:37:33.332Z,61.43
2019-05-25T12:38:33.404Z,64.24
2019-05-25T12:39:33.311Z,63.93
2019-05-25T12:40:33.358Z,64.74
2019-05-25T12:41:33.950Z,63.23
2019-05-25T12:42:33.381Z,62.83
2019-05-25T12:43:33.286Z,64.04
2019-05-25T12:44:34.502Z,61.43
2019-05-25T12:45:33.265Z,60.52
2019-05-25T12:46:33.256Z,61.72
2019-05-25T12:47:33.279Z,62.53
2019-05-25T12:48:33.235Z,61.63
2019-05-25T12:49:49.473Z,62.03
2019-05-25T12:50:34.260Z,60.96
2019-05-25T12:51:33.191Z,61.86
2019-05-25T12:52:33.266Z,63.19
2019-05-25T12:53:33.190Z,61.88
2019-05-25T12:54:33.161Z,63.19
2019-05-25T12:55:33.139Z,62.39
2019-05-25T12:56:33.182Z,62.19
2019-05-25T12:57:33.184Z,62.99
2019-05-25T12:58:33.114Z,63.32
2019-05-25T12:59:33.099Z,63.02
2019-05-25T13:00:33.094Z,62.72
2019-05-25T13:01:33.515Z,63.29
2019-05-25T13:02:33.076Z,64.43
2019-05-25T13:03:33.051Z,64.03
2019-05-25T13:04:33.058Z,63.22
2019-05-25T13:05:34.726Z,64.53
2019-05-25T13:06:33.029Z,64.03
2019-05-25T13:07:33.489Z,66.20
2019-05-25T13:08:33.000Z,65.53
2019-05-25T13:09:33.037Z,64.33
2019-05-25T13:10:32.961Z,63.49
2019-05-25T13:11:32.978Z,62.82
2019-05-25T13:12:33.029Z,63.73
2019-05-25T13:13:32.966Z,63.65
2019-05-25T13:14:32.952Z,65.36
2019-05-25T13:15:32.920Z,64.86
2019-05-25T13:16:32.908Z,65.16
2019-05-25T13:17:32.946Z,65.77
2019-05-25T13:18:33.486Z,65.73
2019-05-25T13:19:32.879Z,66.34
2019-05-25T13:20:32.911Z,66.03
2019-05-25T13:21:32.894Z,64.73
2019-05-25T13:22:32.839Z,64.03
2019-05-25T13:23:32.899Z,63.93
2019-05-25T13:24:32.868Z,63.02
2019-05-25T13:25:32.817Z,62.42
2019-05-25T13:26:42.731Z,61.61
2019-05-25T13:29:14.389Z,62.35
2019-05-25T13:29:45.168Z,62.15
2019-05-25T13:30:44.938Z,63.56
2019-05-25T13:31:44.899Z,62.38
2019-05-25T13:32:44.936Z,62.18
2019-05-25T13:33:44.888Z,63.59
2019-05-25T13:34:44.871Z,64.79
2019-05-25T13:35:44.862Z,64.99
2019-05-25T13:36:44.892Z,64.19
2019-05-25T13:37:44.829Z,62.81
2019-05-25T13:38:44.826Z,64.82
2019-05-25T13:39:45.741Z,65.12
2019-05-25T13:40:44.874Z,64.52
2019-05-25T13:41:44.795Z,66.33
2019-05-25T13:42:44.813Z,65.70
2019-05-25T13:43:44.770Z,64.29
2019-05-25T13:44:44.754Z,65.39
2019-05-25T13:45:46.097Z,64.89
2019-05-25T13:46:44.778Z,64.72
2019-05-25T13:47:44.709Z,64.79
2019-05-25T13:48:44.710Z,64.82
2019-05-25T13:49:45.705Z,65.93
2019-05-25T13:50:44.744Z,65.12
2019-05-25T13:51:44.665Z,65.83
2019-05-25T13:52:44.695Z,65.42
2019-05-25T13:53:44.642Z,65.93
2019-05-25T13:54:44.642Z,65.50
2019-05-25T13:55:44.660Z,64.82
2019-05-25T13:56:44.618Z,65.42
2019-05-25T13:57:45.726Z,66.03
2019-05-25T13:58:44.570Z,66.33
2019-05-25T13:59:44.583Z,65.73
2019-05-25T14:00:44.630Z,66.30
2019-05-25T14:01:44.557Z,66.00
2019-05-25T14:02:44.577Z,66.60
2019-05-25T14:03:44.574Z,65.56
2019-05-25T14:04:44.531Z,65.56
2019-05-25T14:05:44.513Z,63.79
2019-05-25T14:06:44.513Z,64.79
2019-05-25T14:07:44.487Z,65.53
2019-05-25T14:08:44.520Z,65.70
2019-05-25T14:09:44.475Z,66.80
2019-05-25T14:10:44.487Z,65.59
2019-05-25T14:11:44.444Z,64.79
2019-05-25T14:12:44.430Z,65.12
2019-05-25T14:13:44.436Z,66.94
2019-05-25T14:14:44.425Z,65.42
2019-05-25T14:15:44.429Z,64.79
2019-05-25T14:16:44.399Z,64.89
2019-05-25T14:17:44.366Z,65.30
2019-05-25T14:18:44.362Z,64.86
2019-05-25T14:19:44.388Z,64.46
2019-05-25T14:20:44.392Z,64.13
2019-05-25T14:21:44.411Z,66.24
2019-05-25T14:22:44.323Z,62.19
2019-05-25T14:23:44.309Z,61.08
2019-05-25T14:24:44.305Z,62.12
2019-05-25T14:25:45.347Z,60.31
2019-05-25T14:26:44.279Z,61.99
2019-05-25T14:27:44.312Z,60.00
2019-05-25T14:28:44.258Z,61.11
2019-05-25T14:29:47.758Z,63.62
2019-05-25T14:30:44.751Z,65.23
2019-05-25T14:31:45.968Z,65.03
2019-05-25T14:32:44.226Z,64.76
2019-05-25T14:33:44.226Z,63.76
2019-05-25T14:34:44.194Z,64.86
2019-05-25T14:35:44.216Z,62.15
2019-05-25T14:36:44.205Z,62.95
2019-05-25T14:37:44.158Z,63.28
2019-05-25T14:38:44.226Z,64.52
2019-05-25T14:39:44.121Z,64.72
2019-05-25T14:40:44.129Z,63.71
2019-05-25T14:41:44.158Z,64.05
2019-05-25T14:43:05.178Z,64.89
2019-05-25T14:43:44.096Z,65.01
2019-05-25T14:44:44.074Z,64.44
2019-05-25T14:45:44.084Z,65.95
2019-05-25T14:46:44.044Z,66.25
2019-05-25T14:47:44.128Z,65.15
2019-05-25T14:48:44.054Z,65.45
2019-05-25T14:49:44.033Z,65.75
2019-05-25T14:50:44.015Z,65.95
2019-05-25T14:51:44.003Z,67.10
2019-05-25T14:52:43.996Z,64.98
2019-05-25T14:53:44.066Z,66.59
2019-05-25T14:54:44.018Z,66.59
2019-05-25T14:55:43.941Z,67.10
2019-05-25T14:56:44.010Z,67.30
2019-05-25T14:58:57.963Z,67.10
2019-05-25T14:59:58.007Z,65.99
2019-05-25T15:00:58.034Z,67.30
2019-05-25T15:02:02.574Z,66.19
2019-05-25T15:02:57.816Z,66.56
2019-05-25T15:03:58.431Z,67.36
2019-05-25T15:04:57.792Z,66.39
2019-05-25T15:05:57.761Z,68.51
2019-05-25T15:06:59.400Z,66.29
2019-05-25T15:07:57.747Z,65.38
2019-05-25T15:08:57.808Z,65.18
2019-05-25T15:09:58.335Z,65.48
2019-05-25T15:10:57.720Z,66.59
2019-05-25T15:11:57.702Z,66.59
2019-05-25T15:12:57.683Z,70.53
2019-05-25T15:17:02.048Z,72.71
2019-05-25T15:17:37.237Z,73.93
2019-05-25T15:29:36.489Z,77.37
2019-05-25T15:30:27.230Z,77.47
2019-05-25T15:31:58.725Z,76.97
2019-05-25T15:41:23.367Z,80.24
2019-05-25T15:52:38.641Z,80.57
2019-05-25T15:55:05.653Z,81.48
2019-05-25T15:58:34.426Z,80.32
2019-05-25T15:59:08.058Z,79.01
2019-05-25T16:06:32.774Z,77.66
2019-05-25T16:07:08.416Z,77.02
2019-05-25T16:08:05.740Z,76.75
2019-05-25T16:09:06.634Z,77.12
2019-05-25T16:10:05.578Z,76.38
2019-05-25T16:11:05.575Z,76.38
2019-05-25T16:12:05.564Z,76.75
2019-05-25T16:13:05.649Z,76.40
2019-05-25T16:14:07.538Z,75.10
2019-05-25T16:15:05.555Z,73.65
2019-05-25T16:16:05.493Z,73.14
2019-05-25T16:17:05.505Z,70.62
2019-05-25T16:18:05.491Z,72.34
2019-05-25T16:19:05.493Z,72.04
2019-05-25T16:20:05.530Z,71.23
2019-05-25T16:21:05.456Z,70.62
2019-05-25T16:22:05.426Z,74.76
2019-05-25T16:23:05.471Z,73.05
2019-05-25T16:24:08.085Z,72.24
2019-05-25T16:25:06.369Z,71.13
2019-05-25T16:26:05.430Z,71.13
2019-05-25T16:27:05.398Z,70.59
2019-05-25T16:28:05.376Z,71.06
2019-05-25T16:29:05.365Z,68.65
2019-05-25T16:30:05.383Z,67.54
2019-05-25T16:31:05.369Z,68.24
2019-05-25T16:32:05.331Z,67.11
2019-05-25T16:33:33.802Z,66.91
2019-05-25T16:34:05.777Z,65.39
2019-05-25T16:39:38.323Z,65.30
2019-05-25T16:40:37.467Z,65.80
2019-05-25T16:41:37.615Z,66.94
2019-05-25T16:43:54.401Z,69.52
2019-05-25T16:44:54.517Z,71.09
2019-05-25T16:45:54.338Z,70.83
2019-05-25T16:46:54.334Z,66.80
2019-05-25T16:47:54.380Z,66.40
2019-05-25T16:48:54.433Z,66.94
2019-05-25T16:49:54.222Z,68.55
2019-05-25T16:50:54.194Z,66.36
2019-05-25T16:51:54.161Z,66.87
2019-05-25T16:52:54.273Z,68.21
2019-05-25T16:53:54.141Z,69.82
2019-05-25T16:54:54.090Z,68.91
2019-05-25T16:55:54.899Z,70.76
2019-05-25T16:56:54.073Z,69.05
2019-05-25T16:57:54.172Z,68.37
2019-05-25T16:58:55.771Z,69.79
2019-05-25T16:59:54.043Z,70.29
2019-05-25T17:01:08.877Z,68.98
2019-05-25T17:01:54.169Z,71.50
2019-05-25T17:02:54.187Z,71.00
2019-05-25T17:03:54.129Z,71.33
2019-05-25T17:04:54.145Z,69.82
2019-05-25T17:05:54.250Z,70.02
2019-05-25T17:06:54.008Z,71.87
2019-05-25T17:07:53.943Z,69.75
2019-05-25T17:08:56.350Z,71.37
2019-05-25T17:09:53.919Z,70.26
2019-05-25T17:10:53.931Z,73.08
2019-05-25T17:11:53.915Z,71.67
2019-05-25T17:12:53.890Z,71.60
2019-05-25T17:13:53.936Z,72.88
2019-05-25T17:14:53.902Z,72.81
2019-05-25T17:15:53.893Z,72.11
2019-05-25T17:16:53.858Z,73.02
2019-05-25T17:17:53.867Z,72.61
2019-05-25T17:18:53.808Z,73.72
2019-05-25T17:19:53.819Z,72.00
2019-05-25T17:20:53.834Z,72.11
2019-05-25T17:21:53.874Z,73.11
2019-05-25T17:22:53.784Z,71.44
2019-05-25T17:23:53.803Z,71.03
2019-05-25T17:24:53.771Z,72.34
2019-05-25T17:25:53.750Z,72.95
2019-05-25T17:26:53.783Z,72.64
2019-05-25T17:27:53.763Z,72.75
2019-05-25T17:28:53.694Z,73.35
2019-05-25T17:29:53.705Z,73.86
2019-05-25T17:30:53.703Z,73.66
2019-05-25T17:31:53.741Z,73.66
2019-05-25T17:32:53.718Z,74.87
2019-05-25T17:33:53.670Z,74.66
2019-05-25T17:34:53.621Z,72.44
2019-05-25T17:35:53.642Z,73.28
2019-05-25T17:36:53.637Z,73.90
2019-05-25T17:37:53.622Z,73.49
2019-05-25T17:38:54.548Z,73.69
2019-05-25T17:39:54.580Z,73.49
2019-05-25T17:40:53.575Z,73.28
2019-05-25T17:41:53.586Z,73.90
2019-05-25T17:42:53.569Z,74.40
2019-05-25T17:43:53.607Z,71.87
2019-05-25T17:45:11.743Z,72.78
2019-05-25T17:45:53.717Z,73.19
2019-05-25T17:46:53.864Z,73.49
2019-05-25T17:47:53.626Z,73.72
2019-05-25T17:52:32.940Z,74.23
2019-05-25T17:53:02.197Z,74.23
2019-05-25T17:54:01.966Z,74.94
2019-05-25T17:55:14.212Z,74.84
2019-05-25T18:01:16.219Z,76.50
2019-05-25T18:02:17.597Z,77.10
2019-05-25T18:03:28.654Z,77.10
2019-05-25T18:04:18.654Z,77.61
2019-05-25T18:05:19.012Z,77.97
2019-05-25T18:09:05.410Z,77.10
2019-05-25T19:05:58.227Z,81.53
2019-05-25T19:24:22.768Z,83.62
2019-05-25T19:25:22.780Z,83.04
2019-05-25T19:26:22.824Z,83.65
2019-05-25T19:27:22.844Z,83.86
2019-05-25T19:28:22.598Z,83.80
2019-05-25T19:29:22.552Z,83.35
2019-05-25T19:30:22.561Z,83.15
2019-05-25T19:31:22.522Z,82.88
2019-05-25T19:32:22.605Z,83.80
2019-05-25T19:33:22.647Z,83.90
2019-05-25T19:34:22.544Z,83.70
2019-05-25T19:35:23.209Z,83.84
2019-05-25T19:36:22.468Z,83.43